Funk, Nebraska
Current Conditions -  °F | °C
As of 10:15 AM on Sunday 25 Jan 2015 (Local Time) from KHDE Reporting Station
Clear Clear  
Wind Chill: 31°   Ceiling: Unl
Heat Index: 41°   Visibility: 10mi
Dew Point: 28°   Wind: 23mph
Humidity: 60%   Direction: 340°NNW
Pressure: 30.02"   Gusts: 33mph
Location:  40.46°N, 99.25°W
Report Text: KHDE 251615Z AUTO 34020G29KT 10SM CLR 05/M02 A3002 RMK AO2 T00511022
Loading
Personal Weather Stations






























Interactive Weather Map New forecast layout! Learn more

10-Day Weather Forecast

Advertisements
Track Severe Weather on mobile